sensor_id;sensor_type;location;lat;lon;timestamp;P1;durP1;ratioP1;P2;durP2;ratioP2
3207;SDS011;1616;52.394;9.756;2023-05-23T00:02:20;15.47;;;14.20;;
3207;SDS011;1616;52.394;9.756;2023-05-23T00:04:45;17.80;;;16.20;;
3207;SDS011;1616;52.394;9.756;2023-05-23T00:07:11;13.87;;;12.87;;
3207;SDS011;1616;52.394;9.756;2023-05-23T00:09:36;16.03;;;14.70;;
3207;SDS011;1616;52.394;9.756;2023-05-23T00:12:02;14.63;;;11.83;;
3207;SDS011;1616;52.394;9.756;2023-05-23T00:14:28;15.00;;;13.70;;
3207;SDS011;1616;52.394;9.756;2023-05-23T00:16:58;18.47;;;16.77;;
3207;SDS011;1616;52.394;9.756;2023-05-23T00:19:24;13.27;;;12.27;;
3207;SDS011;1616;52.394;9.756;2023-05-23T00:21:50;15.43;;;14.27;;
3207;SDS011;1616;52.394;9.756;2023-05-23T00:24:17;13.13;;;12.20;;
3207;SDS011;1616;52.394;9.756;2023-05-23T00:26:44;14.83;;;13.63;;
3207;SDS011;1616;52.394;9.756;2023-05-23T00:29:10;12.40;;;11.50;;
3207;SDS011;1616;52.394;9.756;2023-05-23T00:31:43;14.60;;;13.50;;
3207;SDS011;1616;52.394;9.756;2023-05-23T00:34:11;13.43;;;12.53;;
3207;SDS011;1616;52.394;9.756;2023-05-23T00:36:37;15.20;;;14.10;;
3207;SDS011;1616;52.394;9.756;2023-05-23T00:39:06;14.10;;;12.80;;
3207;SDS011;1616;52.394;9.756;2023-05-23T00:41:32;15.87;;;14.53;;
3207;SDS011;1616;52.394;9.756;2023-05-23T00:43:58;21.30;;;18.00;;
3207;SDS011;1616;52.394;9.756;2023-05-23T00:46:25;18.13;;;16.63;;
3207;SDS011;1616;52.394;9.756;2023-05-23T00:48:52;24.33;;;21.77;;
3207;SDS011;1616;52.394;9.756;2023-05-23T00:51:19;21.17;;;19.27;;
3207;SDS011;1616;52.394;9.756;2023-05-23T00:53:45;29.53;;;26.43;;
3207;SDS011;1616;52.394;9.756;2023-05-23T00:56:11;41.10;;;28.93;;
3207;SDS011;1616;52.394;9.756;2023-05-23T00:58:38;23.03;;;20.50;;
3207;SDS011;1616;52.394;9.756;2023-05-23T01:01:05;27.67;;;24.77;;
3207;SDS011;1616;52.394;9.756;2023-05-23T01:03:32;32.67;;;29.40;;
3207;SDS011;1616;52.394;9.756;2023-05-23T01:05:57;30.50;;;27.43;;
3207;SDS011;1616;52.394;9.756;2023-05-23T01:08:23;33.17;;;29.10;;
3207;SDS011;1616;52.394;9.756;2023-05-23T01:10:49;41.23;;;30.60;;
3207;SDS011;1616;52.394;9.756;2023-05-23T01:16:16;49.10;;;41.23;;
3207;SDS011;1616;52.394;9.756;2023-05-23T01:19:10;46.63;;;34.73;;
3207;SDS011;1616;52.394;9.756;2023-05-23T01:21:53;41.53;;;36.13;;
3207;SDS011;1616;52.394;9.756;2023-05-23T01:27:04;53.13;;;34.70;;
3207;SDS011;1616;52.394;9.756;2023-05-23T01:29:52;35.33;;;30.57;;
3207;SDS011;1616;52.394;9.756;2023-05-23T01:32:20;28.20;;;24.57;;
3207;SDS011;1616;52.394;9.756;2023-05-23T01:34:48;28.97;;;26.20;;
3207;SDS011;1616;52.394;9.756;2023-05-23T01:37:17;28.53;;;25.60;;
3207;SDS011;1616;52.394;9.756;2023-05-23T01:39:44;24.80;;;22.30;;
3207;SDS011;1616;52.394;9.756;2023-05-23T01:42:09;23.33;;;20.60;;
3207;SDS011;1616;52.394;9.756;2023-05-23T01:44:36;28.50;;;22.77;;
3207;SDS011;1616;52.394;9.756;2023-05-23T01:47:03;34.33;;;27.53;;
3207;SDS011;1616;52.394;9.756;2023-05-23T01:49:31;30.63;;;27.43;;
3207;SDS011;1616;52.394;9.756;2023-05-23T01:51:59;25.67;;;21.53;;
3207;SDS011;1616;52.394;9.756;2023-05-23T01:54:26;23.40;;;21.03;;
3207;SDS011;1616;52.394;9.756;2023-05-23T01:56:56;22.47;;;20.20;;
3207;SDS011;1616;52.394;9.756;2023-05-23T01:59:22;23.83;;;21.30;;
3207;SDS011;1616;52.394;9.756;2023-05-23T02:01:48;27.93;;;22.33;;
3207;SDS011;1616;52.394;9.756;2023-05-23T02:04:14;21.20;;;19.30;;
3207;SDS011;1616;52.394;9.756;2023-05-23T02:06:40;19.30;;;17.50;;
3207;SDS011;1616;52.394;9.756;2023-05-23T02:09:06;18.80;;;17.10;;
3207;SDS011;1616;52.394;9.756;2023-05-23T02:11:32;23.40;;;21.00;;
3207;SDS011;1616;52.394;9.756;2023-05-23T02:13:59;17.87;;;16.37;;
3207;SDS011;1616;52.394;9.756;2023-05-23T02:16:25;16.50;;;15.13;;
3207;SDS011;1616;52.394;9.756;2023-05-23T02:18:51;20.80;;;16.87;;
3207;SDS011;1616;52.394;9.756;2023-05-23T02:21:21;16.73;;;15.20;;
3207;SDS011;1616;52.394;9.756;2023-05-23T02:23:47;20.33;;;18.20;;
3207;SDS011;1616;52.394;9.756;2023-05-23T02:26:12;20.63;;;18.40;;
3207;SDS011;1616;52.394;9.756;2023-05-23T02:28:38;15.60;;;14.23;;
3207;SDS011;1616;52.394;9.756;2023-05-23T02:31:04;14.70;;;13.57;;
3207;SDS011;1616;52.394;9.756;2023-05-23T02:33:30;17.03;;;15.43;;
3207;SDS011;1616;52.394;9.756;2023-05-23T02:35:56;23.43;;;18.07;;
3207;SDS011;1616;52.394;9.756;2023-05-23T02:38:22;18.60;;;16.80;;
3207;SDS011;1616;52.394;9.756;2023-05-23T02:40:47;16.07;;;14.70;;
3207;SDS011;1616;52.394;9.756;2023-05-23T02:43:14;18.13;;;16.60;;
3207;SDS011;1616;52.394;9.756;2023-05-23T02:45:40;18.30;;;16.53;;
3207;SDS011;1616;52.394;9.756;2023-05-23T02:48:05;17.87;;;16.17;;
3207;SDS011;1616;52.394;9.756;2023-05-23T02:50:31;19.33;;;14.43;;
3207;SDS011;1616;52.394;9.756;2023-05-23T02:52:56;16.80;;;15.33;;
3207;SDS011;1616;52.394;9.756;2023-05-23T02:55:22;14.40;;;13.30;;
3207;SDS011;1616;52.394;9.756;2023-05-23T02:57:48;13.60;;;12.60;;
3207;SDS011;1616;52.394;9.756;2023-05-23T03:00:14;14.70;;;13.50;;
3207;SDS011;1616;52.394;9.756;2023-05-23T03:02:40;14.50;;;13.13;;
3207;SDS011;1616;52.394;9.756;2023-05-23T03:05:06;16.03;;;14.57;;
3207;SDS011;1616;52.394;9.756;2023-05-23T03:07:31;15.70;;;14.27;;
3207;SDS011;1616;52.394;9.756;2023-05-23T03:09:58;16.90;;;15.30;;
3207;SDS011;1616;52.394;9.756;2023-05-23T03:12:26;16.13;;;14.53;;
3207;SDS011;1616;52.394;9.756;2023-05-23T03:14:52;16.53;;;15.07;;
3207;SDS011;1616;52.394;9.756;2023-05-23T03:17:17;13.67;;;12.57;;
3207;SDS011;1616;52.394;9.756;2023-05-23T03:19:43;11.67;;;10.93;;
3207;SDS011;1616;52.394;9.756;2023-05-23T03:22:09;18.13;;;13.87;;
3207;SDS011;1616;52.394;9.756;2023-05-23T03:24:34;22.40;;;15.80;;
3207;SDS011;1616;52.394;9.756;2023-05-23T03:27:00;28.13;;;13.27;;
3207;SDS011;1616;52.394;9.756;2023-05-23T03:29:26;18.97;;;15.30;;
3207;SDS011;1616;52.394;9.756;2023-05-23T03:31:51;21.23;;;15.40;;
3207;SDS011;1616;52.394;9.756;2023-05-23T03:34:17;24.87;;;14.33;;
3207;SDS011;1616;52.394;9.756;2023-05-23T03:36:42;14.53;;;12.13;;
3207;SDS011;1616;52.394;9.756;2023-05-23T03:39:08;19.03;;;12.60;;
3207;SDS011;1616;52.394;9.756;2023-05-23T03:41:33;16.50;;;13.90;;
3207;SDS011;1616;52.394;9.756;2023-05-23T03:43:59;21.27;;;16.57;;
3207;SDS011;1616;52.394;9.756;2023-05-23T03:46:25;18.17;;;16.47;;
3207;SDS011;1616;52.394;9.756;2023-05-23T03:48:50;14.73;;;13.43;;
3207;SDS011;1616;52.394;9.756;2023-05-23T03:51:16;15.37;;;14.07;;
3207;SDS011;1616;52.394;9.756;2023-05-23T03:53:42;23.13;;;11.97;;
3207;SDS011;1616;52.394;9.756;2023-05-23T03:56:08;13.17;;;11.97;;
3207;SDS011;1616;52.394;9.756;2023-05-23T03:58:33;21.27;;;13.00;;
3207;SDS011;1616;52.394;9.756;2023-05-23T04:00:59;12.93;;;11.90;;
3207;SDS011;1616;52.394;9.756;2023-05-23T04:03:25;14.73;;;13.23;;
3207;SDS011;1616;52.394;9.756;2023-05-23T04:05:52;13.40;;;12.20;;
3207;SDS011;1616;52.394;9.756;2023-05-23T04:08:18;13.47;;;12.20;;
3207;SDS011;1616;52.394;9.756;2023-05-23T04:10:46;13.30;;;12.30;;
3207;SDS011;1616;52.394;9.756;2023-05-23T04:13:12;12.63;;;11.70;;
3207;SDS011;1616;52.394;9.756;2023-05-23T04:15:39;14.23;;;11.37;;
3207;SDS011;1616;52.394;9.756;2023-05-23T04:18:05;13.30;;;11.40;;
3207;SDS011;1616;52.394;9.756;2023-05-23T04:20:33;12.57;;;11.30;;
3207;SDS011;1616;52.394;9.756;2023-05-23T04:22:58;10.97;;;9.90;;
3207;SDS011;1616;52.394;9.756;2023-05-23T04:25:24;11.67;;;10.53;;
3207;SDS011;1616;52.394;9.756;2023-05-23T04:27:50;11.00;;;10.30;;
3207;SDS011;1616;52.394;9.756;2023-05-23T04:30:16;10.97;;;10.00;;
3207;SDS011;1616;52.394;9.756;2023-05-23T04:32:42;11.63;;;10.43;;
3207;SDS011;1616;52.394;9.756;2023-05-23T04:35:08;9.60;;;8.83;;
3207;SDS011;1616;52.394;9.756;2023-05-23T04:37:35;8.37;;;7.70;;
3207;SDS011;1616;52.394;9.756;2023-05-23T04:40:02;11.70;;;10.80;;
3207;SDS011;1616;52.394;9.756;2023-05-23T04:42:28;14.73;;;12.87;;
3207;SDS011;1616;52.394;9.756;2023-05-23T04:44:54;49.20;;;35.80;;
3207;SDS011;1616;52.394;9.756;2023-05-23T04:47:22;26.00;;;19.37;;
3207;SDS011;1616;52.394;9.756;2023-05-23T04:49:52;32.57;;;21.77;;
3207;SDS011;1616;52.394;9.756;2023-05-23T04:52:21;19.63;;;15.73;;
3207;SDS011;1616;52.394;9.756;2023-05-23T04:54:47;13.83;;;12.17;;
3207;SDS011;1616;52.394;9.756;2023-05-23T04:57:13;15.27;;;12.47;;
3207;SDS011;1616;52.394;9.756;2023-05-23T04:59:39;13.33;;;12.13;;
3207;SDS011;1616;52.394;9.756;2023-05-23T05:02:06;13.47;;;12.23;;
3207;SDS011;1616;52.394;9.756;2023-05-23T05:04:33;13.73;;;12.30;;
3207;SDS011;1616;52.394;9.756;2023-05-23T05:06:58;12.80;;;11.60;;
3207;SDS011;1616;52.394;9.756;2023-05-23T05:09:24;11.10;;;10.20;;
3207;SDS011;1616;52.394;9.756;2023-05-23T05:11:50;15.73;;;10.87;;
3207;SDS011;1616;52.394;9.756;2023-05-23T05:14:15;10.37;;;9.43;;
3207;SDS011;1616;52.394;9.756;2023-05-23T05:16:41;11.67;;;10.73;;
3207;SDS011;1616;52.394;9.756;2023-05-23T05:19:07;10.57;;;9.63;;
3207;SDS011;1616;52.394;9.756;2023-05-23T05:21:32;9.20;;;8.57;;
3207;SDS011;1616;52.394;9.756;2023-05-23T05:23:58;10.33;;;9.53;;
3207;SDS011;1616;52.394;9.756;2023-05-23T05:26:24;8.43;;;7.87;;
3207;SDS011;1616;52.394;9.756;2023-05-23T05:28:51;10.00;;;9.17;;
3207;SDS011;1616;52.394;9.756;2023-05-23T05:31:17;8.93;;;8.30;;
3207;SDS011;1616;52.394;9.756;2023-05-23T05:33:43;7.80;;;7.10;;
3207;SDS011;1616;52.394;9.756;2023-05-23T05:36:10;9.47;;;8.57;;
3207;SDS011;1616;52.394;9.756;2023-05-23T05:38:35;10.50;;;9.60;;
3207;SDS011;1616;52.394;9.756;2023-05-23T05:41:01;10.57;;;9.70;;
3207;SDS011;1616;52.394;9.756;2023-05-23T05:43:27;9.27;;;8.43;;
3207;SDS011;1616;52.394;9.756;2023-05-23T05:45:52;6.97;;;6.57;;
3207;SDS011;1616;52.394;9.756;2023-05-23T05:48:18;7.23;;;6.73;;
3207;SDS011;1616;52.394;9.756;2023-05-23T05:50:44;8.77;;;5.83;;
3207;SDS011;1616;52.394;9.756;2023-05-23T05:53:10;6.00;;;5.60;;
3207;SDS011;1616;52.394;9.756;2023-05-23T05:55:37;7.80;;;7.30;;
3207;SDS011;1616;52.394;9.756;2023-05-23T05:58:03;6.37;;;5.93;;
3207;SDS011;1616;52.394;9.756;2023-05-23T06:00:29;6.27;;;5.80;;
3207;SDS011;1616;52.394;9.756;2023-05-23T06:02:55;7.50;;;6.93;;
3207;SDS011;1616;52.394;9.756;2023-05-23T06:05:23;7.07;;;6.77;;
3207;SDS011;1616;52.394;9.756;2023-05-23T06:07:50;5.87;;;5.47;;
3207;SDS011;1616;52.394;9.756;2023-05-23T06:10:16;5.27;;;5.07;;
3207;SDS011;1616;52.394;9.756;2023-05-23T06:12:42;6.33;;;6.03;;
3207;SDS011;1616;52.394;9.756;2023-05-23T06:15:09;6.37;;;6.03;;
3207;SDS011;1616;52.394;9.756;2023-05-23T06:17:35;6.33;;;5.93;;
3207;SDS011;1616;52.394;9.756;2023-05-23T06:20:01;7.43;;;6.90;;
3207;SDS011;1616;52.394;9.756;2023-05-23T06:22:28;8.20;;;7.70;;
3207;SDS011;1616;52.394;9.756;2023-05-23T06:24:53;5.13;;;4.83;;
3207;SDS011;1616;52.394;9.756;2023-05-23T06:27:19;9.10;;;8.60;;
3207;SDS011;1616;52.394;9.756;2023-05-23T06:29:44;9.50;;;8.90;;
3207;SDS011;1616;52.394;9.756;2023-05-23T06:32:10;10.70;;;9.90;;
3207;SDS011;1616;52.394;9.756;2023-05-23T06:34:35;9.20;;;8.30;;
3207;SDS011;1616;52.394;9.756;2023-05-23T06:37:01;12.87;;;11.70;;
3207;SDS011;1616;52.394;9.756;2023-05-23T06:39:27;9.97;;;9.27;;
3207;SDS011;1616;52.394;9.756;2023-05-23T06:41:52;10.30;;;9.60;;
3207;SDS011;1616;52.394;9.756;2023-05-23T06:44:18;12.70;;;11.57;;
3207;SDS011;1616;52.394;9.756;2023-05-23T06:46:44;13.13;;;12.13;;
3207;SDS011;1616;52.394;9.756;2023-05-23T06:49:10;11.87;;;11.00;;
3207;SDS011;1616;52.394;9.756;2023-05-23T06:51:36;11.10;;;10.23;;
3207;SDS011;1616;52.394;9.756;2023-05-23T06:54:02;12.27;;;11.10;;
3207;SDS011;1616;52.394;9.756;2023-05-23T06:56:27;12.10;;;11.20;;
3207;SDS011;1616;52.394;9.756;2023-05-23T06:58:53;11.53;;;10.57;;
3207;SDS011;1616;52.394;9.756;2023-05-23T07:01:19;11.43;;;10.50;;
3207;SDS011;1616;52.394;9.756;2023-05-23T07:03:44;11.53;;;10.60;;
3207;SDS011;1616;52.394;9.756;2023-05-23T07:06:10;9.80;;;9.17;;
3207;SDS011;1616;52.394;9.756;2023-05-23T07:08:37;10.80;;;9.80;;
3207;SDS011;1616;52.394;9.756;2023-05-23T07:11:03;8.73;;;8.03;;
3207;SDS011;1616;52.394;9.756;2023-05-23T07:13:29;9.37;;;8.80;;
3207;SDS011;1616;52.394;9.756;2023-05-23T07:15:55;18.63;;;7.80;;
3207;SDS011;1616;52.394;9.756;2023-05-23T07:18:22;7.33;;;6.93;;
3207;SDS011;1616;52.394;9.756;2023-05-23T07:20:48;11.23;;;7.23;;
3207;SDS011;1616;52.394;9.756;2023-05-23T07:23:14;7.70;;;5.87;;
3207;SDS011;1616;52.394;9.756;2023-05-23T07:25:40;7.50;;;7.00;;
3207;SDS011;1616;52.394;9.756;2023-05-23T07:28:07;7.30;;;7.00;;
3207;SDS011;1616;52.394;9.756;2023-05-23T07:30:33;7.37;;;7.03;;
3207;SDS011;1616;52.394;9.756;2023-05-23T07:33:00;6.87;;;6.30;;
3207;SDS011;1616;52.394;9.756;2023-05-23T07:35:26;9.97;;;6.57;;
3207;SDS011;1616;52.394;9.756;2023-05-23T07:37:52;6.30;;;6.00;;
3207;SDS011;1616;52.394;9.756;2023-05-23T07:40:18;6.60;;;6.20;;
3207;SDS011;1616;52.394;9.756;2023-05-23T07:42:44;5.80;;;5.50;;
3207;SDS011;1616;52.394;9.756;2023-05-23T07:45:10;6.07;;;5.77;;
3207;SDS011;1616;52.394;9.756;2023-05-23T07:47:35;7.03;;;6.33;;
3207;SDS011;1616;52.394;9.756;2023-05-23T07:50:01;5.00;;;4.80;;
3207;SDS011;1616;52.394;9.756;2023-05-23T07:52:28;4.93;;;4.43;;
3207;SDS011;1616;52.394;9.756;2023-05-23T07:54:54;4.47;;;4.27;;
3207;SDS011;1616;52.394;9.756;2023-05-23T07:57:21;5.57;;;5.17;;
3207;SDS011;1616;52.394;9.756;2023-05-23T07:59:48;5.33;;;5.00;;
3207;SDS011;1616;52.394;9.756;2023-05-23T08:02:15;5.47;;;5.17;;
3207;SDS011;1616;52.394;9.756;2023-05-23T08:04:41;6.73;;;6.33;;
3207;SDS011;1616;52.394;9.756;2023-05-23T08:07:07;8.80;;;8.20;;
3207;SDS011;1616;52.394;9.756;2023-05-23T08:09:34;7.73;;;7.33;;
3207;SDS011;1616;52.394;9.756;2023-05-23T08:12:00;9.00;;;8.40;;
3207;SDS011;1616;52.394;9.756;2023-05-23T08:14:26;7.50;;;7.20;;
3207;SDS011;1616;52.394;9.756;2023-05-23T08:16:51;13.60;;;9.43;;
3207;SDS011;1616;52.394;9.756;2023-05-23T08:19:18;10.23;;;9.30;;
3207;SDS011;1616;52.394;9.756;2023-05-23T08:21:43;15.20;;;11.17;;
3207;SDS011;1616;52.394;9.756;2023-05-23T08:24:10;16.10;;;14.00;;
3207;SDS011;1616;52.394;9.756;2023-05-23T08:26:37;13.10;;;11.73;;
3207;SDS011;1616;52.394;9.756;2023-05-23T08:29:03;12.67;;;11.47;;
3207;SDS011;1616;52.394;9.756;2023-05-23T08:31:30;13.37;;;12.20;;
3207;SDS011;1616;52.394;9.756;2023-05-23T08:33:57;13.53;;;11.67;;
3207;SDS011;1616;52.394;9.756;2023-05-23T08:36:23;13.13;;;11.93;;
3207;SDS011;1616;52.394;9.756;2023-05-23T08:38:49;15.97;;;11.90;;
3207;SDS011;1616;52.394;9.756;2023-05-23T08:41:19;12.40;;;11.17;;
3207;SDS011;1616;52.394;9.756;2023-05-23T08:43:47;13.43;;;10.87;;
3207;SDS011;1616;52.394;9.756;2023-05-23T08:46:16;14.00;;;9.63;;
3207;SDS011;1616;52.394;9.756;2023-05-23T08:48:42;13.23;;;10.70;;
3207;SDS011;1616;52.394;9.756;2023-05-23T08:51:13;13.47;;;9.60;;
3207;SDS011;1616;52.394;9.756;2023-05-23T08:53:41;10.20;;;9.33;;
3207;SDS011;1616;52.394;9.756;2023-05-23T08:56:13;12.17;;;10.23;;
3207;SDS011;1616;52.394;9.756;2023-05-23T08:58:43;16.97;;;12.77;;
3207;SDS011;1616;52.394;9.756;2023-05-23T09:01:14;22.00;;;13.60;;
3207;SDS011;1616;52.394;9.756;2023-05-23T09:03:44;14.47;;;12.97;;
3207;SDS011;1616;52.394;9.756;2023-05-23T09:06:09;22.80;;;15.20;;
3207;SDS011;1616;52.394;9.756;2023-05-23T09:08:35;17.20;;;13.67;;
3207;SDS011;1616;52.394;9.756;2023-05-23T09:11:05;15.77;;;13.00;;
3207;SDS011;1616;52.394;9.756;2023-05-23T09:13:31;21.23;;;15.00;;
3207;SDS011;1616;52.394;9.756;2023-05-23T09:18:26;15.57;;;13.00;;
3207;SDS011;1616;52.394;9.756;2023-05-23T09:21:02;21.30;;;12.90;;
3207;SDS011;1616;52.394;9.756;2023-05-23T09:23:29;15.83;;;11.37;;
3207;SDS011;1616;52.394;9.756;2023-05-23T09:25:56;15.13;;;11.63;;
3207;SDS011;1616;52.394;9.756;2023-05-23T09:28:25;13.53;;;10.57;;
3207;SDS011;1616;52.394;9.756;2023-05-23T09:30:57;11.57;;;9.20;;
3207;SDS011;1616;52.394;9.756;2023-05-23T09:36:04;13.93;;;9.40;;
3207;SDS011;1616;52.394;9.756;2023-05-23T09:38:30;11.90;;;10.50;;
3207;SDS011;1616;52.394;9.756;2023-05-23T09:40:57;15.57;;;9.80;;
3207;SDS011;1616;52.394;9.756;2023-05-23T09:43:23;15.53;;;8.83;;
3207;SDS011;1616;52.394;9.756;2023-05-23T09:45:49;11.00;;;9.90;;
3207;SDS011;1616;52.394;9.756;2023-05-23T09:48:16;14.73;;;11.23;;
3207;SDS011;1616;52.394;9.756;2023-05-23T09:50:44;10.17;;;9.13;;
3207;SDS011;1616;52.394;9.756;2023-05-23T09:53:11;13.17;;;9.30;;
3207;SDS011;1616;52.394;9.756;2023-05-23T09:55:36;17.20;;;9.80;;
3207;SDS011;1616;52.394;9.756;2023-05-23T09:58:04;9.93;;;9.00;;
3207;SDS011;1616;52.394;9.756;2023-05-23T10:00:31;9.30;;;7.97;;
3207;SDS011;1616;52.394;9.756;2023-05-23T10:05:45;12.10;;;8.93;;
3207;SDS011;1616;52.394;9.756;2023-05-23T10:08:18;8.33;;;7.73;;
3207;SDS011;1616;52.394;9.756;2023-05-23T10:13:25;7.20;;;6.60;;
3207;SDS011;1616;52.394;9.756;2023-05-23T10:16:14;5.70;;;4.60;;
3207;SDS011;1616;52.394;9.756;2023-05-23T10:18:47;3.93;;;3.53;;
3207;SDS011;1616;52.394;9.756;2023-05-23T10:21:23;4.47;;;3.27;;
3207;SDS011;1616;52.394;9.756;2023-05-23T10:24:03;3.90;;;2.93;;
3207;SDS011;1616;52.394;9.756;2023-05-23T10:26:29;6.20;;;5.80;;
3207;SDS011;1616;52.394;9.756;2023-05-23T10:28:55;9.77;;;8.77;;
3207;SDS011;1616;52.394;9.756;2023-05-23T10:31:22;44.10;;;34.67;;
3207;SDS011;1616;52.394;9.756;2023-05-23T10:33:54;5.63;;;4.57;;
3207;SDS011;1616;52.394;9.756;2023-05-23T10:36:32;5.80;;;4.20;;
3207;SDS011;1616;52.394;9.756;2023-05-23T10:42:08;5.87;;;4.60;;
3207;SDS011;1616;52.394;9.756;2023-05-23T10:44:37;12.97;;;7.10;;
3207;SDS011;1616;52.394;9.756;2023-05-23T10:47:03;14.17;;;6.33;;
3207;SDS011;1616;52.394;9.756;2023-05-23T10:49:42;11.87;;;6.63;;
3207;SDS011;1616;52.394;9.756;2023-05-23T10:52:10;7.03;;;6.23;;
3207;SDS011;1616;52.394;9.756;2023-05-23T10:54:41;10.23;;;6.63;;
3207;SDS011;1616;52.394;9.756;2023-05-23T10:57:08;10.53;;;7.80;;
3207;SDS011;1616;52.394;9.756;2023-05-23T10:59:37;23.60;;;9.90;;
3207;SDS011;1616;52.394;9.756;2023-05-23T11:02:04;15.00;;;10.20;;
3207;SDS011;1616;52.394;9.756;2023-05-23T11:04:38;21.30;;;10.50;;
3207;SDS011;1616;52.394;9.756;2023-05-23T11:07:04;16.10;;;8.60;;
3207;SDS011;1616;52.394;9.756;2023-05-23T11:09:29;12.40;;;9.40;;
3207;SDS011;1616;52.394;9.756;2023-05-23T11:11:59;17.37;;;9.47;;
3207;SDS011;1616;52.394;9.756;2023-05-23T11:16:57;15.30;;;9.13;;
3207;SDS011;1616;52.394;9.756;2023-05-23T11:19:25;16.37;;;10.57;;
3207;SDS011;1616;52.394;9.756;2023-05-23T11:21:59;25.03;;;9.67;;
3207;SDS011;1616;52.394;9.756;2023-05-23T11:27:53;12.73;;;7.83;;
3207;SDS011;1616;52.394;9.756;2023-05-23T11:30:14;20.93;;;9.10;;
3207;SDS011;1616;52.394;9.756;2023-05-23T11:32:51;17.87;;;9.10;;
3207;SDS011;1616;52.394;9.756;2023-05-23T11:35:20;16.27;;;9.57;;
3207;SDS011;1616;52.394;9.756;2023-05-23T11:37:46;15.33;;;9.40;;
3207;SDS011;1616;52.394;9.756;2023-05-23T11:43:00;13.50;;;9.30;;
3207;SDS011;1616;52.394;9.756;2023-05-23T11:45:28;13.60;;;9.43;;
3207;SDS011;1616;52.394;9.756;2023-05-23T11:47:55;16.43;;;8.10;;
3207;SDS011;1616;52.394;9.756;2023-05-23T11:50:21;9.10;;;7.87;;
3207;SDS011;1616;52.394;9.756;2023-05-23T11:52:48;13.87;;;7.80;;
3207;SDS011;1616;52.394;9.756;2023-05-23T11:55:18;22.97;;;7.23;;
3207;SDS011;1616;52.394;9.756;2023-05-23T11:57:47;16.47;;;6.93;;
3207;SDS011;1616;52.394;9.756;2023-05-23T12:00:13;12.00;;;6.60;;
3207;SDS011;1616;52.394;9.756;2023-05-23T12:02:40;13.30;;;6.60;;
3207;SDS011;1616;52.394;9.756;2023-05-23T12:05:10;15.07;;;5.10;;
3207;SDS011;1616;52.394;9.756;2023-05-23T12:07:47;9.20;;;4.80;;
3207;SDS011;1616;52.394;9.756;2023-05-23T12:10:16;10.40;;;4.97;;
3207;SDS011;1616;52.394;9.756;2023-05-23T12:12:43;13.17;;;6.20;;
3207;SDS011;1616;52.394;9.756;2023-05-23T12:15:09;6.23;;;4.63;;
3207;SDS011;1616;52.394;9.756;2023-05-23T12:17:36;9.73;;;3.67;;
3207;SDS011;1616;52.394;9.756;2023-05-23T12:20:05;4.77;;;3.47;;
3207;SDS011;1616;52.394;9.756;2023-05-23T12:22:31;7.17;;;3.30;;
3207;SDS011;1616;52.394;9.756;2023-05-23T12:24:57;11.07;;;4.70;;
3207;SDS011;1616;52.394;9.756;2023-05-23T12:27:29;10.93;;;4.23;;
3207;SDS011;1616;52.394;9.756;2023-05-23T12:30:04;10.37;;;5.17;;
3207;SDS011;1616;52.394;9.756;2023-05-23T12:32:44;9.93;;;5.03;;
3207;SDS011;1616;52.394;9.756;2023-05-23T12:35:13;5.53;;;4.03;;
3207;SDS011;1616;52.394;9.756;2023-05-23T12:37:40;11.47;;;5.00;;
3207;SDS011;1616;52.394;9.756;2023-05-23T12:40:13;11.40;;;5.80;;
3207;SDS011;1616;52.394;9.756;2023-05-23T12:42:59;11.37;;;4.03;;
3207;SDS011;1616;52.394;9.756;2023-05-23T12:45:31;14.03;;;4.70;;
3207;SDS011;1616;52.394;9.756;2023-05-23T12:47:58;12.27;;;4.10;;
3207;SDS011;1616;52.394;9.756;2023-05-23T12:50:24;11.93;;;3.70;;
3207;SDS011;1616;52.394;9.756;2023-05-23T12:52:50;11.77;;;2.57;;
3207;SDS011;1616;52.394;9.756;2023-05-23T12:55:16;17.33;;;3.37;;
3207;SDS011;1616;52.394;9.756;2023-05-23T12:57:42;14.10;;;3.00;;
3207;SDS011;1616;52.394;9.756;2023-05-23T13:00:08;10.30;;;3.07;;
3207;SDS011;1616;52.394;9.756;2023-05-23T13:02:35;8.37;;;2.47;;
3207;SDS011;1616;52.394;9.756;2023-05-23T13:05:01;5.13;;;3.00;;
3207;SDS011;1616;52.394;9.756;2023-05-23T13:07:27;7.40;;;2.67;;
3207;SDS011;1616;52.394;9.756;2023-05-23T13:09:53;13.60;;;3.53;;
3207;SDS011;1616;52.394;9.756;2023-05-23T13:12:19;6.53;;;2.60;;
3207;SDS011;1616;52.394;9.756;2023-05-23T13:14:45;8.17;;;3.43;;
3207;SDS011;1616;52.394;9.756;2023-05-23T13:17:11;9.50;;;3.07;;
3207;SDS011;1616;52.394;9.756;2023-05-23T13:19:36;10.70;;;2.90;;
3207;SDS011;1616;52.394;9.756;2023-05-23T13:22:04;5.33;;;2.80;;
3207;SDS011;1616;52.394;9.756;2023-05-23T13:24:34;8.53;;;2.73;;
3207;SDS011;1616;52.394;9.756;2023-05-23T13:27:01;11.20;;;2.80;;
3207;SDS011;1616;52.394;9.756;2023-05-23T13:29:29;5.97;;;3.00;;
3207;SDS011;1616;52.394;9.756;2023-05-23T13:31:55;12.37;;;3.57;;
3207;SDS011;1616;52.394;9.756;2023-05-23T13:34:21;5.53;;;2.53;;
3207;SDS011;1616;52.394;9.756;2023-05-23T13:36:46;8.40;;;2.73;;
3207;SDS011;1616;52.394;9.756;2023-05-23T13:39:12;4.80;;;2.63;;
3207;SDS011;1616;52.394;9.756;2023-05-23T13:41:38;15.97;;;2.87;;
3207;SDS011;1616;52.394;9.756;2023-05-23T13:44:04;5.33;;;2.57;;
3207;SDS011;1616;52.394;9.756;2023-05-23T13:46:30;4.00;;;2.33;;
3207;SDS011;1616;52.394;9.756;2023-05-23T13:48:56;8.73;;;2.60;;
3207;SDS011;1616;52.394;9.756;2023-05-23T13:51:21;13.13;;;4.57;;
3207;SDS011;1616;52.394;9.756;2023-05-23T13:53:47;4.83;;;2.73;;
3207;SDS011;1616;52.394;9.756;2023-05-23T13:56:13;10.00;;;2.83;;
3207;SDS011;1616;52.394;9.756;2023-05-23T13:58:39;12.30;;;3.13;;
3207;SDS011;1616;52.394;9.756;2023-05-23T14:01:06;7.90;;;2.93;;
3207;SDS011;1616;52.394;9.756;2023-05-23T14:03:33;13.40;;;2.90;;
3207;SDS011;1616;52.394;9.756;2023-05-23T14:05:58;9.60;;;3.23;;
3207;SDS011;1616;52.394;9.756;2023-05-23T14:08:24;11.67;;;3.20;;
3207;SDS011;1616;52.394;9.756;2023-05-23T14:10:50;5.00;;;3.00;;
3207;SDS011;1616;52.394;9.756;2023-05-23T14:13:15;10.77;;;3.77;;
3207;SDS011;1616;52.394;9.756;2023-05-23T14:15:42;12.93;;;4.20;;
3207;SDS011;1616;52.394;9.756;2023-05-23T14:18:07;9.03;;;3.70;;
3207;SDS011;1616;52.394;9.756;2023-05-23T14:20:33;13.73;;;4.87;;
3207;SDS011;1616;52.394;9.756;2023-05-23T14:22:58;6.43;;;3.97;;
3207;SDS011;1616;52.394;9.756;2023-05-23T14:25:24;8.20;;;3.70;;
3207;SDS011;1616;52.394;9.756;2023-05-23T14:27:50;12.83;;;4.23;;
3207;SDS011;1616;52.394;9.756;2023-05-23T14:30:15;9.33;;;3.50;;
3207;SDS011;1616;52.394;9.756;2023-05-23T14:32:41;15.47;;;3.77;;
3207;SDS011;1616;52.394;9.756;2023-05-23T14:35:08;7.13;;;2.80;;
3207;SDS011;1616;52.394;9.756;2023-05-23T14:37:35;13.57;;;3.60;;
3207;SDS011;1616;52.394;9.756;2023-05-23T14:40:02;10.40;;;3.70;;
3207;SDS011;1616;52.394;9.756;2023-05-23T14:42:31;12.73;;;3.40;;
3207;SDS011;1616;52.394;9.756;2023-05-23T14:44:57;3.63;;;2.87;;
3207;SDS011;1616;52.394;9.756;2023-05-23T14:47:22;4.67;;;2.90;;
3207;SDS011;1616;52.394;9.756;2023-05-23T14:49:48;4.90;;;2.57;;
3207;SDS011;1616;52.394;9.756;2023-05-23T14:52:14;13.60;;;2.27;;
3207;SDS011;1616;52.394;9.756;2023-05-23T14:54:40;16.33;;;3.97;;
3207;SDS011;1616;52.394;9.756;2023-05-23T14:57:07;5.93;;;2.40;;
3207;SDS011;1616;52.394;9.756;2023-05-23T14:59:33;6.60;;;2.60;;
3207;SDS011;1616;52.394;9.756;2023-05-23T15:02:01;7.30;;;2.37;;
3207;SDS011;1616;52.394;9.756;2023-05-23T15:04:27;12.23;;;3.27;;
3207;SDS011;1616;52.394;9.756;2023-05-23T15:06:52;6.17;;;1.87;;
3207;SDS011;1616;52.394;9.756;2023-05-23T15:09:18;4.77;;;2.80;;
3207;SDS011;1616;52.394;9.756;2023-05-23T15:11:44;4.27;;;1.70;;
3207;SDS011;1616;52.394;9.756;2023-05-23T15:14:11;10.23;;;2.30;;
3207;SDS011;1616;52.394;9.756;2023-05-23T15:16:36;7.60;;;3.23;;
3207;SDS011;1616;52.394;9.756;2023-05-23T15:19:03;3.80;;;1.80;;
3207;SDS011;1616;52.394;9.756;2023-05-23T15:21:29;7.30;;;2.37;;
3207;SDS011;1616;52.394;9.756;2023-05-23T15:23:56;7.03;;;2.83;;
3207;SDS011;1616;52.394;9.756;2023-05-23T15:26:23;5.77;;;2.10;;
3207;SDS011;1616;52.394;9.756;2023-05-23T15:28:49;7.73;;;2.53;;